<?xml version="1.0" encoding="UTF-8" standalone="no" ?>
<gpx xmlns="http://www.topografix.com/GPX/1/1" xmlns:xsi="http://www.w3.org/2001/XMLSchema-instance" xsi:schemaLocation="http://www.topografix.com/GPX/1/1 http://www.topografix.com/GPX/1/1/gpx.xsd" version="1.1" creator="VisuGPX - https://www.visugpx.com">
  <metadata>
    <name>Buthiers</name>
  </metadata>
  <trk>
    <name><![CDATA[Buthiers_11/07/2025_Voidey64-21872758]]></name>
    <trkseg>
      <trkpt lat="47.35134" lon="6.03114">
        <ele>247</ele>
        <time>2025-07-11T10:22:28Z</time>
      </trkpt>
      <trkpt lat="47.35473" lon="6.03393">
        <ele>270</ele>
        <time>2025-07-11T10:31:06Z</time>
      </trkpt>
      <trkpt lat="47.35569" lon="6.03439">
        <ele>275</ele>
        <time>2025-07-11T10:33:21Z</time>
      </trkpt>
      <trkpt lat="47.35626" lon="6.03469">
        <ele>278</ele>
        <time>2025-07-11T10:34:41Z</time>
      </trkpt>
      <trkpt lat="47.35659" lon="6.03492">
        <ele>280</ele>
        <time>2025-07-11T10:35:30Z</time>
      </trkpt>
      <trkpt lat="47.35765" lon="6.03545">
        <ele>284</ele>
        <time>2025-07-11T10:37:59Z</time>
      </trkpt>
      <trkpt lat="47.35808" lon="6.03577">
        <ele>285</ele>
        <time>2025-07-11T10:39:04Z</time>
      </trkpt>
      <trkpt lat="47.35892" lon="6.03626">
        <ele>287</ele>
        <time>2025-07-11T10:41:04Z</time>
      </trkpt>
      <trkpt lat="47.35941" lon="6.03647">
        <ele>289</ele>
        <time>2025-07-11T10:42:12Z</time>
      </trkpt>
      <trkpt lat="47.35976" lon="6.03674">
        <ele>290</ele>
        <time>2025-07-11T10:43:05Z</time>
      </trkpt>
      <trkpt lat="47.36042" lon="6.03737">
        <ele>293</ele>
        <time>2025-07-11T10:44:50Z</time>
      </trkpt>
      <trkpt lat="47.36097" lon="6.03811">
        <ele>293</ele>
        <time>2025-07-11T10:46:29Z</time>
      </trkpt>
      <trkpt lat="47.36125" lon="6.03841">
        <ele>293</ele>
        <time>2025-07-11T10:47:15Z</time>
      </trkpt>
      <trkpt lat="47.36222" lon="6.03973">
        <ele>291</ele>
        <time>2025-07-11T10:50:11Z</time>
      </trkpt>
      <trkpt lat="47.36252" lon="6.04011">
        <ele>292</ele>
        <time>2025-07-11T10:51:04Z</time>
      </trkpt>
      <trkpt lat="47.36269" lon="6.04026">
        <ele>292</ele>
        <time>2025-07-11T10:51:31Z</time>
      </trkpt>
      <trkpt lat="47.363" lon="6.04072">
        <ele>293</ele>
        <time>2025-07-11T10:52:29Z</time>
      </trkpt>
      <trkpt lat="47.36385" lon="6.04158">
        <ele>299</ele>
        <time>2025-07-11T10:54:47Z</time>
      </trkpt>
      <trkpt lat="47.36431" lon="6.04211">
        <ele>303</ele>
        <time>2025-07-11T10:56:05Z</time>
      </trkpt>
      <trkpt lat="47.36457" lon="6.04232">
        <ele>302</ele>
        <time>2025-07-11T10:56:44Z</time>
      </trkpt>
      <trkpt lat="47.36519" lon="6.04298">
        <ele>301</ele>
        <time>2025-07-11T10:58:26Z</time>
      </trkpt>
      <trkpt lat="47.36548" lon="6.0432">
        <ele>300</ele>
        <time>2025-07-11T10:59:10Z</time>
      </trkpt>
      <trkpt lat="47.36566" lon="6.04341">
        <ele>299</ele>
        <time>2025-07-11T10:59:40Z</time>
      </trkpt>
      <trkpt lat="47.36696" lon="6.04444">
        <ele>297</ele>
        <time>2025-07-11T11:02:57Z</time>
      </trkpt>
      <trkpt lat="47.36796" lon="6.04509">
        <ele>294</ele>
        <time>2025-07-11T11:05:23Z</time>
      </trkpt>
      <trkpt lat="47.36944" lon="6.04625">
        <ele>289</ele>
        <time>2025-07-11T11:09:07Z</time>
      </trkpt>
      <trkpt lat="47.36961" lon="6.04631">
        <ele>289</ele>
        <time>2025-07-11T11:09:30Z</time>
      </trkpt>
      <trkpt lat="47.36973" lon="6.04624">
        <ele>288</ele>
        <time>2025-07-11T11:09:47Z</time>
      </trkpt>
      <trkpt lat="47.36996" lon="6.04563">
        <ele>288</ele>
        <time>2025-07-11T11:10:50Z</time>
      </trkpt>
      <trkpt lat="47.37011" lon="6.0455">
        <ele>288</ele>
        <time>2025-07-11T11:11:13Z</time>
      </trkpt>
      <trkpt lat="47.37036" lon="6.04556">
        <ele>287</ele>
        <time>2025-07-11T11:11:47Z</time>
      </trkpt>
      <trkpt lat="47.37124" lon="6.04612">
        <ele>283</ele>
        <time>2025-07-11T11:13:55Z</time>
      </trkpt>
      <trkpt lat="47.37148" lon="6.0461">
        <ele>280</ele>
        <time>2025-07-11T11:14:27Z</time>
      </trkpt>
      <trkpt lat="47.37167" lon="6.0459">
        <ele>278</ele>
        <time>2025-07-11T11:14:58Z</time>
      </trkpt>
      <trkpt lat="47.37215" lon="6.04478">
        <ele>270</ele>
        <time>2025-07-11T11:16:58Z</time>
      </trkpt>
      <trkpt lat="47.37226" lon="6.04465">
        <ele>269</ele>
        <time>2025-07-11T11:17:17Z</time>
      </trkpt>
      <trkpt lat="47.3724" lon="6.0446">
        <ele>267</ele>
        <time>2025-07-11T11:17:36Z</time>
      </trkpt>
      <trkpt lat="47.37256" lon="6.04461">
        <ele>265</ele>
        <time>2025-07-11T11:17:58Z</time>
      </trkpt>
      <trkpt lat="47.3727" lon="6.04469">
        <ele>264</ele>
        <time>2025-07-11T11:18:18Z</time>
      </trkpt>
      <trkpt lat="47.37301" lon="6.045">
        <ele>263</ele>
        <time>2025-07-11T11:19:08Z</time>
      </trkpt>
      <trkpt lat="47.37391" lon="6.04562">
        <ele>266</ele>
        <time>2025-07-11T11:21:20Z</time>
      </trkpt>
      <trkpt lat="47.37401" lon="6.04576">
        <ele>267</ele>
        <time>2025-07-11T11:21:38Z</time>
      </trkpt>
      <trkpt lat="47.37414" lon="6.04581">
        <ele>267</ele>
        <time>2025-07-11T11:21:56Z</time>
      </trkpt>
      <trkpt lat="47.37432" lon="6.04575">
        <ele>267</ele>
        <time>2025-07-11T11:22:21Z</time>
      </trkpt>
      <trkpt lat="47.37527" lon="6.04492">
        <ele>263</ele>
        <time>2025-07-11T11:24:48Z</time>
      </trkpt>
      <trkpt lat="47.37531" lon="6.04484">
        <ele>262</ele>
        <time>2025-07-11T11:24:57Z</time>
      </trkpt>
      <trkpt lat="47.3753" lon="6.04469">
        <ele>260</ele>
        <time>2025-07-11T11:25:11Z</time>
      </trkpt>
      <trkpt lat="47.37518" lon="6.0445">
        <ele>257</ele>
        <time>2025-07-11T11:25:34Z</time>
      </trkpt>
      <trkpt lat="47.3747" lon="6.0442">
        <ele>252</ele>
        <time>2025-07-11T11:26:44Z</time>
      </trkpt>
      <trkpt lat="47.37463" lon="6.04409">
        <ele>251</ele>
        <time>2025-07-11T11:26:58Z</time>
      </trkpt>
      <trkpt lat="47.37422" lon="6.04392">
        <ele>247</ele>
        <time>2025-07-11T11:27:54Z</time>
      </trkpt>
      <trkpt lat="47.37389" lon="6.04361">
        <ele>244</ele>
        <time>2025-07-11T11:28:47Z</time>
      </trkpt>
      <trkpt lat="47.3735" lon="6.04298">
        <ele>240</ele>
        <time>2025-07-11T11:30:04Z</time>
      </trkpt>
      <trkpt lat="47.37336" lon="6.04257">
        <ele>237</ele>
        <time>2025-07-11T11:30:45Z</time>
      </trkpt>
      <trkpt lat="47.37323" lon="6.04244">
        <ele>237</ele>
        <time>2025-07-11T11:31:06Z</time>
      </trkpt>
      <trkpt lat="47.37296" lon="6.04233">
        <ele>239</ele>
        <time>2025-07-11T11:31:44Z</time>
      </trkpt>
      <trkpt lat="47.37275" lon="6.04219">
        <ele>241</ele>
        <time>2025-07-11T11:32:14Z</time>
      </trkpt>
      <trkpt lat="47.37254" lon="6.04198">
        <ele>240</ele>
        <time>2025-07-11T11:32:48Z</time>
      </trkpt>
      <trkpt lat="47.37251" lon="6.04187">
        <ele>239</ele>
        <time>2025-07-11T11:32:59Z</time>
      </trkpt>
      <trkpt lat="47.3724" lon="6.04185">
        <ele>241</ele>
        <time>2025-07-11T11:33:14Z</time>
      </trkpt>
      <trkpt lat="47.37238" lon="6.04188">
        <ele>241</ele>
        <time>2025-07-11T11:33:17Z</time>
      </trkpt>
      <trkpt lat="47.37242" lon="6.04195">
        <ele>242</ele>
        <time>2025-07-11T11:33:26Z</time>
      </trkpt>
      <trkpt lat="47.37245" lon="6.0419">
        <ele>241</ele>
        <time>2025-07-11T11:33:32Z</time>
      </trkpt>
      <trkpt lat="47.37248" lon="6.04193">
        <ele>240</ele>
        <time>2025-07-11T11:33:37Z</time>
      </trkpt>
      <trkpt lat="47.37239" lon="6.04186">
        <ele>241</ele>
        <time>2025-07-11T11:33:50Z</time>
      </trkpt>
      <trkpt lat="47.37227" lon="6.04167">
        <ele>240</ele>
        <time>2025-07-11T11:34:14Z</time>
      </trkpt>
      <trkpt lat="47.37211" lon="6.04158">
        <ele>242</ele>
        <time>2025-07-11T11:34:36Z</time>
      </trkpt>
      <trkpt lat="47.37173" lon="6.04112">
        <ele>242</ele>
        <time>2025-07-11T11:35:42Z</time>
      </trkpt>
      <trkpt lat="47.37125" lon="6.04073">
        <ele>245</ele>
        <time>2025-07-11T11:36:55Z</time>
      </trkpt>
      <trkpt lat="47.37115" lon="6.04059">
        <ele>245</ele>
        <time>2025-07-11T11:37:14Z</time>
      </trkpt>
      <trkpt lat="47.37105" lon="6.04054">
        <ele>246</ele>
        <time>2025-07-11T11:37:28Z</time>
      </trkpt>
      <trkpt lat="47.37045" lon="6.03998">
        <ele>247</ele>
        <time>2025-07-11T11:39:02Z</time>
      </trkpt>
      <trkpt lat="47.37031" lon="6.03965">
        <ele>246</ele>
        <time>2025-07-11T11:39:38Z</time>
      </trkpt>
      <trkpt lat="47.37017" lon="6.0395">
        <ele>246</ele>
        <time>2025-07-11T11:40:01Z</time>
      </trkpt>
      <trkpt lat="47.37011" lon="6.03932">
        <ele>245</ele>
        <time>2025-07-11T11:40:19Z</time>
      </trkpt>
      <trkpt lat="47.37004" lon="6.03925">
        <ele>245</ele>
        <time>2025-07-11T11:40:30Z</time>
      </trkpt>
      <trkpt lat="47.37002" lon="6.03913">
        <ele>245</ele>
        <time>2025-07-11T11:40:41Z</time>
      </trkpt>
      <trkpt lat="47.36981" lon="6.0389">
        <ele>244</ele>
        <time>2025-07-11T11:41:16Z</time>
      </trkpt>
      <trkpt lat="47.36981" lon="6.03893">
        <ele>244</ele>
        <time>2025-07-11T11:41:19Z</time>
      </trkpt>
      <trkpt lat="47.37001" lon="6.03869">
        <ele>242</ele>
        <time>2025-07-11T11:41:53Z</time>
      </trkpt>
      <trkpt lat="47.37002" lon="6.0386">
        <ele>241</ele>
        <time>2025-07-11T11:42:01Z</time>
      </trkpt>
      <trkpt lat="47.36998" lon="6.03855">
        <ele>241</ele>
        <time>2025-07-11T11:42:08Z</time>
      </trkpt>
      <trkpt lat="47.36989" lon="6.03849">
        <ele>241</ele>
        <time>2025-07-11T11:42:22Z</time>
      </trkpt>
      <trkpt lat="47.36961" lon="6.03843">
        <ele>242</ele>
        <time>2025-07-11T11:42:59Z</time>
      </trkpt>
      <trkpt lat="47.36913" lon="6.03854">
        <ele>244</ele>
        <time>2025-07-11T11:44:04Z</time>
      </trkpt>
      <trkpt lat="47.36894" lon="6.03852">
        <ele>243</ele>
        <time>2025-07-11T11:44:30Z</time>
      </trkpt>
      <trkpt lat="47.3684" lon="6.03821">
        <ele>238</ele>
        <time>2025-07-11T11:45:47Z</time>
      </trkpt>
      <trkpt lat="47.36798" lon="6.0377">
        <ele>235</ele>
        <time>2025-07-11T11:47:00Z</time>
      </trkpt>
      <trkpt lat="47.36792" lon="6.03773">
        <ele>235</ele>
        <time>2025-07-11T11:47:08Z</time>
      </trkpt>
      <trkpt lat="47.3678" lon="6.03818">
        <ele>237</ele>
        <time>2025-07-11T11:47:52Z</time>
      </trkpt>
      <trkpt lat="47.36773" lon="6.03818">
        <ele>237</ele>
        <time>2025-07-11T11:48:01Z</time>
      </trkpt>
      <trkpt lat="47.36767" lon="6.03804">
        <ele>237</ele>
        <time>2025-07-11T11:48:16Z</time>
      </trkpt>
      <trkpt lat="47.36742" lon="6.03774">
        <ele>236</ele>
        <time>2025-07-11T11:48:59Z</time>
      </trkpt>
      <trkpt lat="47.36728" lon="6.0375">
        <ele>235</ele>
        <time>2025-07-11T11:49:28Z</time>
      </trkpt>
      <trkpt lat="47.36688" lon="6.037">
        <ele>233</ele>
        <time>2025-07-11T11:50:38Z</time>
      </trkpt>
      <trkpt lat="47.36675" lon="6.03689">
        <ele>233</ele>
        <time>2025-07-11T11:50:58Z</time>
      </trkpt>
      <trkpt lat="47.36669" lon="6.03667">
        <ele>232</ele>
        <time>2025-07-11T11:51:19Z</time>
      </trkpt>
      <trkpt lat="47.36619" lon="6.0362">
        <ele>239</ele>
        <time>2025-07-11T11:52:38Z</time>
      </trkpt>
      <trkpt lat="47.36599" lon="6.03606">
        <ele>241</ele>
        <time>2025-07-11T11:53:08Z</time>
      </trkpt>
      <trkpt lat="47.36591" lon="6.03591">
        <ele>241</ele>
        <time>2025-07-11T11:53:25Z</time>
      </trkpt>
      <trkpt lat="47.36593" lon="6.03578">
        <ele>240</ele>
        <time>2025-07-11T11:53:37Z</time>
      </trkpt>
      <trkpt lat="47.36574" lon="6.03555">
        <ele>241</ele>
        <time>2025-07-11T11:54:10Z</time>
      </trkpt>
      <trkpt lat="47.36567" lon="6.03538">
        <ele>241</ele>
        <time>2025-07-11T11:54:28Z</time>
      </trkpt>
      <trkpt lat="47.36549" lon="6.03529">
        <ele>242</ele>
        <time>2025-07-11T11:54:53Z</time>
      </trkpt>
      <trkpt lat="47.36542" lon="6.03518">
        <ele>242</ele>
        <time>2025-07-11T11:55:07Z</time>
      </trkpt>
      <trkpt lat="47.3651" lon="6.03507">
        <ele>245</ele>
        <time>2025-07-11T11:55:51Z</time>
      </trkpt>
      <trkpt lat="47.3649" lon="6.03457">
        <ele>241</ele>
        <time>2025-07-11T11:56:43Z</time>
      </trkpt>
      <trkpt lat="47.36465" lon="6.03441">
        <ele>242</ele>
        <time>2025-07-11T11:57:19Z</time>
      </trkpt>
      <trkpt lat="47.36456" lon="6.03419">
        <ele>241</ele>
        <time>2025-07-11T11:57:43Z</time>
      </trkpt>
      <trkpt lat="47.36397" lon="6.03341">
        <ele>240</ele>
        <time>2025-07-11T11:59:28Z</time>
      </trkpt>
      <trkpt lat="47.36331" lon="6.03274">
        <ele>244</ele>
        <time>2025-07-11T12:01:15Z</time>
      </trkpt>
      <trkpt lat="47.36305" lon="6.03239">
        <ele>243</ele>
        <time>2025-07-11T12:02:02Z</time>
      </trkpt>
      <trkpt lat="47.36269" lon="6.03201">
        <ele>241</ele>
        <time>2025-07-11T12:03:01Z</time>
      </trkpt>
      <trkpt lat="47.36257" lon="6.03193">
        <ele>241</ele>
        <time>2025-07-11T12:03:19Z</time>
      </trkpt>
      <trkpt lat="47.36198" lon="6.03127">
        <ele>239</ele>
        <time>2025-07-11T12:04:58Z</time>
      </trkpt>
      <trkpt lat="47.3617" lon="6.03116">
        <ele>240</ele>
        <time>2025-07-11T12:05:36Z</time>
      </trkpt>
      <trkpt lat="47.36164" lon="6.03118">
        <ele>241</ele>
        <time>2025-07-11T12:05:44Z</time>
      </trkpt>
      <trkpt lat="47.36082" lon="6.03071">
        <ele>238</ele>
        <time>2025-07-11T12:07:42Z</time>
      </trkpt>
      <trkpt lat="47.35958" lon="6.02886">
        <ele>237</ele>
        <time>2025-07-11T12:11:37Z</time>
      </trkpt>
      <trkpt lat="47.35897" lon="6.02829">
        <ele>235</ele>
        <time>2025-07-11T12:13:13Z</time>
      </trkpt>
      <trkpt lat="47.35844" lon="6.02793">
        <ele>233</ele>
        <time>2025-07-11T12:14:31Z</time>
      </trkpt>
      <trkpt lat="47.35823" lon="6.02774">
        <ele>232</ele>
        <time>2025-07-11T12:15:04Z</time>
      </trkpt>
      <trkpt lat="47.35785" lon="6.02705">
        <ele>231</ele>
        <time>2025-07-11T12:16:25Z</time>
      </trkpt>
      <trkpt lat="47.35765" lon="6.02686">
        <ele>231</ele>
        <time>2025-07-11T12:16:56Z</time>
      </trkpt>
      <trkpt lat="47.35747" lon="6.02682">
        <ele>231</ele>
        <time>2025-07-11T12:17:21Z</time>
      </trkpt>
      <trkpt lat="47.35708" lon="6.02717">
        <ele>230</ele>
        <time>2025-07-11T12:18:21Z</time>
      </trkpt>
      <trkpt lat="47.35698" lon="6.02729">
        <ele>230</ele>
        <time>2025-07-11T12:18:39Z</time>
      </trkpt>
      <trkpt lat="47.35706" lon="6.02728">
        <ele>230</ele>
        <time>2025-07-11T12:18:49Z</time>
      </trkpt>
      <trkpt lat="47.35701" lon="6.02726">
        <ele>230</ele>
        <time>2025-07-11T12:18:56Z</time>
      </trkpt>
      <trkpt lat="47.35711" lon="6.02746">
        <ele>229</ele>
        <time>2025-07-11T12:19:19Z</time>
      </trkpt>
      <trkpt lat="47.35704" lon="6.02766">
        <ele>229</ele>
        <time>2025-07-11T12:19:39Z</time>
      </trkpt>
      <trkpt lat="47.35683" lon="6.02797">
        <ele>230</ele>
        <time>2025-07-11T12:20:19Z</time>
      </trkpt>
      <trkpt lat="47.35639" lon="6.02826">
        <ele>230</ele>
        <time>2025-07-11T12:21:23Z</time>
      </trkpt>
      <trkpt lat="47.35639" lon="6.02837">
        <ele>230</ele>
        <time>2025-07-11T12:21:33Z</time>
      </trkpt>
      <trkpt lat="47.35689" lon="6.02844">
        <ele>231</ele>
        <time>2025-07-11T12:22:40Z</time>
      </trkpt>
      <trkpt lat="47.35722" lon="6.02857">
        <ele>233</ele>
        <time>2025-07-11T12:23:26Z</time>
      </trkpt>
      <trkpt lat="47.35765" lon="6.0286">
        <ele>234</ele>
        <time>2025-07-11T12:24:23Z</time>
      </trkpt>
      <trkpt lat="47.35793" lon="6.0287">
        <ele>235</ele>
        <time>2025-07-11T12:25:01Z</time>
      </trkpt>
      <trkpt lat="47.35804" lon="6.02878">
        <ele>236</ele>
        <time>2025-07-11T12:25:18Z</time>
      </trkpt>
      <trkpt lat="47.35916" lon="6.03077">
        <ele>261</ele>
        <time>2025-07-11T12:29:12Z</time>
      </trkpt>
      <trkpt lat="47.35944" lon="6.03135">
        <ele>264</ele>
        <time>2025-07-11T12:30:16Z</time>
      </trkpt>
      <trkpt lat="47.35993" lon="6.03264">
        <ele>275</ele>
        <time>2025-07-11T12:32:30Z</time>
      </trkpt>
      <trkpt lat="47.36004" lon="6.03317">
        <ele>279</ele>
        <time>2025-07-11T12:33:20Z</time>
      </trkpt>
      <trkpt lat="47.36014" lon="6.03335">
        <ele>280</ele>
        <time>2025-07-11T12:33:41Z</time>
      </trkpt>
      <trkpt lat="47.36035" lon="6.03358">
        <ele>281</ele>
        <time>2025-07-11T12:34:16Z</time>
      </trkpt>
      <trkpt lat="47.36046" lon="6.03379">
        <ele>282</ele>
        <time>2025-07-11T12:34:40Z</time>
      </trkpt>
      <trkpt lat="47.36075" lon="6.03409">
        <ele>282</ele>
        <time>2025-07-11T12:35:27Z</time>
      </trkpt>
      <trkpt lat="47.36097" lon="6.03442">
        <ele>283</ele>
        <time>2025-07-11T12:36:09Z</time>
      </trkpt>
      <trkpt lat="47.36116" lon="6.03484">
        <ele>285</ele>
        <time>2025-07-11T12:36:55Z</time>
      </trkpt>
      <trkpt lat="47.36127" lon="6.0349">
        <ele>284</ele>
        <time>2025-07-11T12:37:10Z</time>
      </trkpt>
      <trkpt lat="47.36154" lon="6.03488">
        <ele>280</ele>
        <time>2025-07-11T12:37:46Z</time>
      </trkpt>
      <trkpt lat="47.36157" lon="6.03497">
        <ele>280</ele>
        <time>2025-07-11T12:37:55Z</time>
      </trkpt>
      <trkpt lat="47.36178" lon="6.03493">
        <ele>276</ele>
        <time>2025-07-11T12:38:24Z</time>
      </trkpt>
      <trkpt lat="47.362" lon="6.035">
        <ele>274</ele>
        <time>2025-07-11T12:38:54Z</time>
      </trkpt>
      <trkpt lat="47.36204" lon="6.03506">
        <ele>274</ele>
        <time>2025-07-11T12:39:01Z</time>
      </trkpt>
      <trkpt lat="47.3622" lon="6.03498">
        <ele>272</ele>
        <time>2025-07-11T12:39:24Z</time>
      </trkpt>
      <trkpt lat="47.36258" lon="6.03512">
        <ele>268</ele>
        <time>2025-07-11T12:40:16Z</time>
      </trkpt>
      <trkpt lat="47.36283" lon="6.03531">
        <ele>264</ele>
        <time>2025-07-11T12:40:54Z</time>
      </trkpt>
      <trkpt lat="47.36309" lon="6.03567">
        <ele>256</ele>
        <time>2025-07-11T12:41:41Z</time>
      </trkpt>
      <trkpt lat="47.36337" lon="6.03623">
        <ele>249</ele>
        <time>2025-07-11T12:42:44Z</time>
      </trkpt>
      <trkpt lat="47.36394" lon="6.03677">
        <ele>253</ele>
        <time>2025-07-11T12:44:14Z</time>
      </trkpt>
      <trkpt lat="47.36433" lon="6.03745">
        <ele>259</ele>
        <time>2025-07-11T12:45:35Z</time>
      </trkpt>
      <trkpt lat="47.36463" lon="6.03778">
        <ele>262</ele>
        <time>2025-07-11T12:46:25Z</time>
      </trkpt>
      <trkpt lat="47.36499" lon="6.0383">
        <ele>263</ele>
        <time>2025-07-11T12:47:32Z</time>
      </trkpt>
      <trkpt lat="47.3653" lon="6.039">
        <ele>263</ele>
        <time>2025-07-11T12:48:48Z</time>
      </trkpt>
      <trkpt lat="47.36556" lon="6.03924">
        <ele>261</ele>
        <time>2025-07-11T12:49:29Z</time>
      </trkpt>
      <trkpt lat="47.36577" lon="6.03937">
        <ele>260</ele>
        <time>2025-07-11T12:49:59Z</time>
      </trkpt>
      <trkpt lat="47.36593" lon="6.03956">
        <ele>261</ele>
        <time>2025-07-11T12:50:26Z</time>
      </trkpt>
      <trkpt lat="47.36611" lon="6.04026">
        <ele>269</ele>
        <time>2025-07-11T12:51:34Z</time>
      </trkpt>
      <trkpt lat="47.36621" lon="6.04049">
        <ele>272</ele>
        <time>2025-07-11T12:51:59Z</time>
      </trkpt>
      <trkpt lat="47.36629" lon="6.04054">
        <ele>272</ele>
        <time>2025-07-11T12:52:10Z</time>
      </trkpt>
      <trkpt lat="47.36666" lon="6.04056">
        <ele>270</ele>
        <time>2025-07-11T12:53:00Z</time>
      </trkpt>
      <trkpt lat="47.36681" lon="6.04065">
        <ele>270</ele>
        <time>2025-07-11T12:53:21Z</time>
      </trkpt>
      <trkpt lat="47.36693" lon="6.04078">
        <ele>271</ele>
        <time>2025-07-11T12:53:41Z</time>
      </trkpt>
      <trkpt lat="47.36722" lon="6.04131">
        <ele>274</ele>
        <time>2025-07-11T12:54:43Z</time>
      </trkpt>
      <trkpt lat="47.36735" lon="6.04177">
        <ele>279</ele>
        <time>2025-07-11T12:55:28Z</time>
      </trkpt>
      <trkpt lat="47.36745" lon="6.04198">
        <ele>280</ele>
        <time>2025-07-11T12:55:51Z</time>
      </trkpt>
      <trkpt lat="47.36755" lon="6.04208">
        <ele>281</ele>
        <time>2025-07-11T12:56:07Z</time>
      </trkpt>
      <trkpt lat="47.3677" lon="6.04214">
        <ele>280</ele>
        <time>2025-07-11T12:56:28Z</time>
      </trkpt>
      <trkpt lat="47.36805" lon="6.04206">
        <ele>276</ele>
        <time>2025-07-11T12:57:15Z</time>
      </trkpt>
      <trkpt lat="47.36823" lon="6.04215">
        <ele>276</ele>
        <time>2025-07-11T12:57:41Z</time>
      </trkpt>
      <trkpt lat="47.36874" lon="6.04286">
        <ele>280</ele>
        <time>2025-07-11T12:59:14Z</time>
      </trkpt>
      <trkpt lat="47.36902" lon="6.04313">
        <ele>281</ele>
        <time>2025-07-11T12:59:59Z</time>
      </trkpt>
      <trkpt lat="47.36964" lon="6.04392">
        <ele>286</ele>
        <time>2025-07-11T13:01:48Z</time>
      </trkpt>
      <trkpt lat="47.37036" lon="6.04456">
        <ele>286</ele>
        <time>2025-07-11T13:03:40Z</time>
      </trkpt>
      <trkpt lat="47.37047" lon="6.04476">
        <ele>286</ele>
        <time>2025-07-11T13:04:04Z</time>
      </trkpt>
      <trkpt lat="47.37051" lon="6.04495">
        <ele>287</ele>
        <time>2025-07-11T13:04:22Z</time>
      </trkpt>
      <trkpt lat="47.37046" lon="6.04532">
        <ele>287</ele>
        <time>2025-07-11T13:04:56Z</time>
      </trkpt>
      <trkpt lat="47.37034" lon="6.04547">
        <ele>287</ele>
        <time>2025-07-11T13:05:17Z</time>
      </trkpt>
      <trkpt lat="47.37015" lon="6.0454">
        <ele>288</ele>
        <time>2025-07-11T13:05:43Z</time>
      </trkpt>
      <trkpt lat="47.36999" lon="6.04549">
        <ele>288</ele>
        <time>2025-07-11T13:06:06Z</time>
      </trkpt>
      <trkpt lat="47.36978" lon="6.04591">
        <ele>288</ele>
        <time>2025-07-11T13:06:53Z</time>
      </trkpt>
      <trkpt lat="47.36974" lon="6.04614">
        <ele>288</ele>
        <time>2025-07-11T13:07:14Z</time>
      </trkpt>
      <trkpt lat="47.36963" lon="6.04625">
        <ele>289</ele>
        <time>2025-07-11T13:07:32Z</time>
      </trkpt>
      <trkpt lat="47.3695" lon="6.04623">
        <ele>289</ele>
        <time>2025-07-11T13:07:49Z</time>
      </trkpt>
      <trkpt lat="47.36934" lon="6.04613">
        <ele>289</ele>
        <time>2025-07-11T13:08:13Z</time>
      </trkpt>
      <trkpt lat="47.36762" lon="6.04477">
        <ele>295</ele>
        <time>2025-07-11T13:12:33Z</time>
      </trkpt>
      <trkpt lat="47.36689" lon="6.04432">
        <ele>297</ele>
        <time>2025-07-11T13:14:18Z</time>
      </trkpt>
      <trkpt lat="47.36638" lon="6.04394">
        <ele>297</ele>
        <time>2025-07-11T13:15:35Z</time>
      </trkpt>
      <trkpt lat="47.36509" lon="6.04283">
        <ele>301</ele>
        <time>2025-07-11T13:18:54Z</time>
      </trkpt>
      <trkpt lat="47.36454" lon="6.04225">
        <ele>302</ele>
        <time>2025-07-11T13:20:24Z</time>
      </trkpt>
      <trkpt lat="47.36415" lon="6.04191">
        <ele>303</ele>
        <time>2025-07-11T13:21:25Z</time>
      </trkpt>
      <trkpt lat="47.36394" lon="6.04164">
        <ele>300</ele>
        <time>2025-07-11T13:22:02Z</time>
      </trkpt>
      <trkpt lat="47.36349" lon="6.04123">
        <ele>295</ele>
        <time>2025-07-11T13:23:12Z</time>
      </trkpt>
      <trkpt lat="47.36342" lon="6.04112">
        <ele>295</ele>
        <time>2025-07-11T13:23:26Z</time>
      </trkpt>
      <trkpt lat="47.36325" lon="6.041">
        <ele>294</ele>
        <time>2025-07-11T13:23:51Z</time>
      </trkpt>
      <trkpt lat="47.36298" lon="6.04065">
        <ele>292</ele>
        <time>2025-07-11T13:24:39Z</time>
      </trkpt>
      <trkpt lat="47.36284" lon="6.0404">
        <ele>291</ele>
        <time>2025-07-11T13:25:08Z</time>
      </trkpt>
      <trkpt lat="47.36238" lon="6.03985">
        <ele>292</ele>
        <time>2025-07-11T13:26:27Z</time>
      </trkpt>
      <trkpt lat="47.36205" lon="6.03952">
        <ele>292</ele>
        <time>2025-07-11T13:27:21Z</time>
      </trkpt>
      <trkpt lat="47.36038" lon="6.0373">
        <ele>293</ele>
        <time>2025-07-11T13:32:20Z</time>
      </trkpt>
      <trkpt lat="47.36013" lon="6.03702">
        <ele>292</ele>
        <time>2025-07-11T13:33:02Z</time>
      </trkpt>
      <trkpt lat="47.3597" lon="6.03664">
        <ele>290</ele>
        <time>2025-07-11T13:34:09Z</time>
      </trkpt>
      <trkpt lat="47.35868" lon="6.03601">
        <ele>286</ele>
        <time>2025-07-11T13:36:37Z</time>
      </trkpt>
      <trkpt lat="47.35788" lon="6.03559">
        <ele>285</ele>
        <time>2025-07-11T13:38:30Z</time>
      </trkpt>
      <trkpt lat="47.35758" lon="6.03538">
        <ele>284</ele>
        <time>2025-07-11T13:39:14Z</time>
      </trkpt>
      <trkpt lat="47.35525" lon="6.03416">
        <ele>273</ele>
        <time>2025-07-11T13:44:44Z</time>
      </trkpt>
      <trkpt lat="47.35453" lon="6.03373">
        <ele>269</ele>
        <time>2025-07-11T13:46:28Z</time>
      </trkpt>
      <trkpt lat="47.35409" lon="6.0334">
        <ele>267</ele>
        <time>2025-07-11T13:47:34Z</time>
      </trkpt>
      <trkpt lat="47.35362" lon="6.03297">
        <ele>262</ele>
        <time>2025-07-11T13:48:48Z</time>
      </trkpt>
      <trkpt lat="47.353" lon="6.03255">
        <ele>258</ele>
        <time>2025-07-11T13:50:19Z</time>
      </trkpt>
      <trkpt lat="47.35273" lon="6.03227">
        <ele>256</ele>
        <time>2025-07-11T13:51:03Z</time>
      </trkpt>
      <trkpt lat="47.35174" lon="6.03147">
        <ele>250</ele>
        <time>2025-07-11T13:53:33Z</time>
      </trkpt>
      <trkpt lat="47.35138" lon="6.03111">
        <ele>248</ele>
        <time>2025-07-11T13:54:31Z</time>
      </trkpt>
      <trkpt lat="47.35125" lon="6.03102">
        <ele>247</ele>
        <time>2025-07-11T13:54:50Z</time>
      </trkpt>
      <trkpt lat="47.35123" lon="6.03104">
        <ele>246</ele>
        <time>2025-07-11T13:54:54Z</time>
      </trkpt>
    </trkseg>
  </trk>
</gpx>